Corwith Cramer — WTF3319 — position and weather

sailwx.info

Track history (hours):
 
Tides and Currents Weather Stations Pressure Air Temp Water Temp Dewpoint Dewpoint Depression Visibility Wind Speed Wind Dir Waves Ship Positions

Oceanographic research ship Corwith Cramer (USA)

Ship's website: http://www.sea.edu/sea2000/AboutSEA2000/cramer.htm

Detailed information on ship capabilities available from University of Delaware's Ocean Information Center.

Owner: SEA EDUCATION ASSOCIATION, WOODS HOLE, MA. More information available from US FCC via Universal Licensing System and Coast Guard Vessel Documentation Center.

Last reported at 2017-Dec-21 07:03 UTC. Time now 2018-Feb-21 17:40 UTC.
Position N 18°19' W 063°34'.
Warning: this ship's position is months out of date.

Type: Sailing vessel. MMSI: 366724450.

Date/timePositionNaut miles runAvg speedWind from/ knotsBaromVisibWave heightAir tempDewpointWater temp
2017-Dec-21 07:03N 18°19' W 063°34'1 4.7
2017-Dec-21 06:54N 18°18' W 063°33'2 4.0
2017-Dec-21 06:30N 18°17' W 063°33'2 4.1
2017-Dec-21 05:59N 18°15' W 063°32'2 4.1
2017-Dec-21 05:30N 18°13' W 063°31'2 4.2
2017-Dec-21 04:59N 18°11' W 063°29'2 4.3
2017-Dec-21 04:30N 18°09' W 063°28'2 3.9
2017-Dec-21 04:00N 18°08' W 063°27'0 0.8
2017-Dec-21 03:31N 18°08' W 063°27'1 2.2
2017-Dec-21 02:59N 18°09' W 063°27'1 2.9
2017-Dec-21 02:30N 18°08' W 063°26'2 4.6
2017-Dec-21 01:59N 18°05' W 063°25'2 4.5
2017-Dec-21 01:30N 18°03' W 063°25'3 5.2
2017-Dec-21 01:00N 18°01' W 063°24'3 4.7
2017-Dec-21 00:25N 17°58' W 063°22'2 4.9
2017-Dec-21 00:00N 17°57' W 063°21'2 3.7
2017-Dec-20 23:30N 17°55' W 063°21'2 4.1
2017-Dec-20 22:57N 17°53' W 063°19'2 4.9
2017-Dec-20 22:30N 17°51' W 063°18'3 5.1
2017-Dec-20 22:00N 17°49' W 063°17'3 5.2
2017-Dec-20 21:28N 17°46' W 063°16'1 2.6
2017-Dec-20 21:00N 17°45' W 063°15'1 1.0
2017-Dec-20 20:27N 17°46' W 063°14'0 0.9
2017-Dec-20 19:59N 17°46' W 063°14'0 1.0
2017-Dec-20 19:29N 17°46' W 063°14'0 0.9
2017-Dec-20 18:59N 17°46' W 063°13'1 0.9
2017-Dec-20 18:19N 17°47' W 063°13'1 2.0
2017-Dec-20 18:00N 17°47' W 063°12'2 4.9
2017-Dec-20 17:30N 17°49' W 063°12'3 5.2
2017-Dec-20 17:00N 17°52' W 063°12'3 5.3
2017-Dec-20 16:29N 17°54' W 063°11'1 2.7
2017-Dec-20 15:58N 17°56' W 063°11'1 2.3
2017-Dec-20 15:28N 17°57' W 063°11'46 6.2
2017-Dec-20 08:04N 17°25' W 062°36'1 5.9
2017-Dec-20 07:56N 17°24' W 062°35'2 5.9
2017-Dec-20 07:30N 17°23' W 062°33'3 5.1
2017-Dec-20 07:00N 17°22' W 062°31'2 4.2
2017-Dec-20 06:30N 17°21' W 062°29'1 1.7
2017-Dec-20 05:59N 17°22' W 062°28'1 1.6
2017-Dec-20 05:31N 17°23' W 062°28'3 5.5
2017-Dec-20 05:00N 17°22' W 062°25'3 5.8
2017-Dec-20 04:30N 17°20' W 062°23'3 5.3
2017-Dec-20 04:00N 17°19' W 062°20'3 5.5
2017-Dec-20 03:30N 17°18' W 062°17'3 5.4
2017-Dec-20 03:00N 17°17' W 062°15'3 5.4
2017-Dec-20 02:30N 17°16' W 062°12'3 5.3
2017-Dec-20 02:00N 17°15' W 062°10'3 5.8
2017-Dec-20 01:31N 17°14' W 062°07'3 5.9
2017-Dec-20 01:01N 17°13' W 062°04'3 5.5
2017-Dec-20 00:31N 17°11' W 062°02'3 5.2
2017-Dec-20 00:00N 17°10' W 061°59'2 4.8
2017-Dec-19 23:31N 17°10' W 061°57'2 4.0
2017-Dec-19 23:00N 17°09' W 061°55'2 3.3
2017-Dec-19 22:31N 17°08' W 061°53'1 1.2
2017-Dec-19 22:00N 17°08' W 061°53'0 0.0
2017-Dec-19 21:30N 17°08' W 061°53'0 0.0
2017-Dec-19 21:01N 17°08' W 061°53'0 0.0
2017-Dec-19 20:31N 17°08' W 061°53'0 0.0
2017-Dec-19 20:00N 17°08' W 061°53'0 0.0
2017-Dec-19 19:30N 17°08' W 061°52'3 5.1
2017-Dec-19 19:01N 17°09' W 061°55'4 7.2
2017-Dec-19 18:30N 17°12' W 061°57'4 7.5
2017-Dec-19 18:01N 17°15' W 061°60'4 7.5
2017-Dec-19 17:31N 17°18' W 062°02'2 4.7
2017-Dec-19 17:01N 17°20' W 062°03'1 1.8
2017-Dec-19 16:30N 17°21' W 062°03'1 1.9
2017-Dec-19 16:00N 17°22' W 062°02'1 2.1
2017-Dec-19 15:30N 17°23' W 062°02'1 1.3
2017-Dec-19 15:01N 17°24' W 062°02'1 2.5
2017-Dec-19 14:31N 17°25' W 062°01'4 8.0
2017-Dec-19 14:01N 17°28' W 061°60'4 7.9
2017-Dec-19 13:30N 17°32' W 061°57'4 7.2
2017-Dec-19 13:00N 17°35' W 061°55'3 6.0
2017-Dec-19 12:31N 17°37' W 061°54'2 4.1
2017-Dec-19 11:58N 17°39' W 061°52'0 0.0
2017-Dec-19 11:28N 17°39' W 061°52'0 0.0
2017-Dec-19 10:58N 17°39' W 061°52'0 0.0
2017-Dec-19 10:28N 17°39' W 061°52'0 0.0
2017-Dec-19 09:58N 17°39' W 061°52'0 0.0
2017-Dec-19 09:28N 17°39' W 061°52'0 0.0
2017-Dec-19 08:58N 17°39' W 061°52'0 0.0
2017-Dec-19 08:28N 17°39' W 061°52'0 0.0
2017-Dec-19 07:58N 17°39' W 061°52'0 0.0
2017-Dec-19 07:28N 17°39' W 061°52'0 0.0
2017-Dec-19 06:58N 17°39' W 061°52'0 0.0
2017-Dec-19 06:28N 17°39' W 061°52'0 0.0
2017-Dec-19 05:55N 17°39' W 061°52'0 0.0
2017-Dec-19 05:28N 17°39' W 061°52'0 0.0
2017-Dec-19 04:58N 17°39' W 061°52'0 0.0
2017-Dec-19 04:28N 17°39' W 061°52'0 0.0
2017-Dec-19 03:58N 17°39' W 061°52'0 0.0
2017-Dec-19 03:28N 17°39' W 061°52'0 0.0
2017-Dec-19 02:58N 17°39' W 061°52'0 0.0
2017-Dec-19 02:28N 17°39' W 061°52'0 0.0
2017-Dec-19 02:01N 17°39' W 061°52'0 0.0
2017-Dec-19 01:28N 17°39' W 061°52'0 0.0
2017-Dec-19 00:54N 17°39' W 061°52'0 0.0
2017-Dec-19 00:30N 17°39' W 061°52'0 0.0
2017-Dec-19 00:00N 17°39' W 061°52'0 0.0
2017-Dec-18 23:30N 17°39' W 061°52'0 0.0
2017-Dec-18 22:57N 17°39' W 061°52'0 0.0
2017-Dec-18 22:30N 17°39' W 061°52'0 0.0
2017-Dec-18 21:57N 17°39' W 061°52'0 0.0
2017-Dec-18 21:27N 17°39' W 061°52'0 0.0
2017-Dec-18 21:00N 17°39' W 061°52'0 0.0
2017-Dec-18 20:30N 17°39' W 061°52'0 0.0
2017-Dec-18 20:00N 17°39' W 061°52'0 0.0
2017-Dec-18 19:30N 17°39' W 061°52'0 0.0
2017-Dec-18 19:00N 17°39' W 061°52'0 0.0
2017-Dec-18 18:30N 17°39' W 061°52'0 0.0
2017-Dec-18 18:00N 17°39' W 061°52'0 0.0
2017-Dec-18 17:30N 17°39' W 061°52'0 0.0
2017-Dec-18 17:00N 17°39' W 061°52'0 0.0
2017-Dec-18 16:30N 17°39' W 061°52'0 0.0
2017-Dec-18 16:00N 17°39' W 061°52'0 0.0
2017-Dec-18 15:30N 17°39' W 061°52'0 0.0
2017-Dec-18 15:00N 17°39' W 061°52'0 0.0
2017-Dec-18 14:30N 17°39' W 061°52'0 0.0
2017-Dec-18 14:00N 17°39' W 061°52'0 0.0
2017-Dec-18 13:27N 17°39' W 061°52'0 0.0
2017-Dec-18 13:00N 17°39' W 061°52'0 0.0
2017-Dec-18 12:30N 17°39' W 061°52'0 0.0
2017-Dec-18 12:00N 17°39' W 061°52'0 0.0
2017-Dec-18 11:30N 17°39' W 061°52'0 0.0
2017-Dec-18 10:57N 17°39' W 061°52'0 0.0
2017-Dec-18 10:30N 17°39' W 061°52'0 0.0
2017-Dec-18 10:00N 17°39' W 061°52'0 0.0
2017-Dec-18 09:30N 17°39' W 061°52'0 0.0
2017-Dec-18 08:57N 17°39' W 061°52'0 0.0
2017-Dec-18 08:30N 17°39' W 061°52'0 0.0
2017-Dec-18 08:00N 17°39' W 061°52'0 0.0
2017-Dec-18 07:30N 17°39' W 061°52'0 0.0
2017-Dec-18 07:00N 17°39' W 061°52'0 0.0
2017-Dec-18 06:30N 17°39' W 061°52'0 0.0
2017-Dec-18 06:00N 17°39' W 061°52'0 0.0
2017-Dec-18 05:27N 17°39' W 061°52'0 0.0
2017-Dec-18 05:00N 17°39' W 061°52'0 0.0
2017-Dec-18 04:30N 17°39' W 061°52'0 0.0
2017-Dec-18 03:57N 17°39' W 061°52'0 0.0
2017-Dec-18 03:27N 17°39' W 061°52'0 0.0
2017-Dec-18 02:57N 17°39' W 061°52'0 0.0
2017-Dec-18 02:30N 17°39' W 061°52'0 0.0
2017-Dec-18 01:57N 17°39' W 061°52'0 0.0
2017-Dec-18 01:30N 17°39' W 061°52'0 0.0
2017-Dec-18 00:57N 17°39' W 061°52'0 0.0
2017-Dec-18 00:27N 17°39' W 061°52'0 0.0
2017-Dec-18 00:00N 17°39' W 061°52'0 0.0
2017-Dec-17 23:27N 17°39' W 061°52'0 0.0
2017-Dec-17 22:57N 17°39' W 061°52'0 0.0
2017-Dec-17 22:30N 17°39' W 061°52'0 0.0
2017-Dec-17 22:00N 17°39' W 061°52'0 0.0
2017-Dec-17 21:30N 17°39' W 061°52'0 0.0
2017-Dec-17 21:00N 17°39' W 061°52'0 0.0
2017-Dec-17 20:27N 17°39' W 061°52'0 0.0
2017-Dec-17 20:00N 17°39' W 061°52'0 0.0
2017-Dec-17 19:30N 17°39' W 061°52'0 0.0
2017-Dec-17 19:00N 17°39' W 061°52'0 0.0
2017-Dec-17 18:30N 17°39' W 061°52'0 0.0
2017-Dec-17 18:00N 17°39' W 061°52'0 0.0
2017-Dec-17 17:30N 17°39' W 061°52'0 0.0
2017-Dec-17 17:00N 17°39' W 061°52'0 0.0
2017-Dec-17 16:30N 17°39' W 061°52'0 0.0
2017-Dec-17 15:59N 17°39' W 061°52'0 0.0
2017-Dec-17 15:29N 17°39' W 061°52'0 0.0
2017-Dec-17 14:58N 17°39' W 061°52'0 0.0
2017-Dec-17 14:30N 17°39' W 061°52'0 0.0
2017-Dec-17 14:00N 17°39' W 061°52'0 0.0
2017-Dec-17 13:31N 17°39' W 061°52'0 0.0
2017-Dec-17 13:00N 17°39' W 061°52'2 3.9
2017-Dec-17 12:31N 17°37' W 061°53'3 6.1
2017-Dec-17 12:01N 17°34' W 061°52'3 5.2
2017-Dec-17 11:29N 17°34' W 061°49'0 0.0
2017-Dec-17 10:56N 17°34' W 061°49'0 0.0
2017-Dec-17 10:29N 17°34' W 061°49'0 0.0
2017-Dec-17 09:59N 17°34' W 061°49'0 0.0
2017-Dec-17 09:29N 17°34' W 061°49'0 0.0
2017-Dec-17 08:56N 17°34' W 061°49'0 0.0
2017-Dec-17 08:29N 17°34' W 061°49'0 0.0
2017-Dec-17 07:59N 17°34' W 061°49'0 0.0
2017-Dec-17 07:26N 17°34' W 061°49'0 0.0
2017-Dec-17 06:59N 17°34' W 061°49'0 0.0
2017-Dec-17 06:29N 17°34' W 061°49'0 0.0
2017-Dec-17 05:56N 17°34' W 061°49'0 0.0
2017-Dec-17 05:26N 17°34' W 061°49'0 0.0
2017-Dec-17 04:59N 17°34' W 061°49'0 0.0
2017-Dec-17 04:29N 17°34' W 061°49'0 0.0
2017-Dec-17 03:58N 17°34' W 061°49'0 0.0
2017-Dec-17 03:28N 17°34' W 061°49'0 0.0
2017-Dec-17 02:58N 17°34' W 061°49'0 0.0
2017-Dec-17 02:28N 17°34' W 061°49'0 0.0
2017-Dec-17 01:58N 17°34' W 061°49'0 0.0
2017-Dec-17 01:28N 17°34' W 061°49'0 0.0
2017-Dec-17 00:58N 17°34' W 061°49'0 0.0
2017-Dec-17 00:28N 17°34' W 061°49'0 0.0
2017-Dec-16 23:58N 17°34' W 061°49'0 0.0
2017-Dec-16 23:28N 17°34' W 061°49'0 0.0
2017-Dec-16 22:58N 17°34' W 061°49'0 0.0
2017-Dec-16 22:28N 17°34' W 061°49'0 0.0
2017-Dec-16 21:58N 17°34' W 061°49'0 0.0
2017-Dec-16 21:28N 17°34' W 061°49'0 0.0
2017-Dec-16 20:58N 17°34' W 061°49'0 0.0
2017-Dec-16 20:28N 17°34' W 061°49'0 0.0
2017-Dec-16 19:58N 17°34' W 061°49'0 0.0
2017-Dec-16 19:28N 17°34' W 061°49'0 0.0
2017-Dec-16 18:58N 17°34' W 061°49'0 0.0
2017-Dec-16 18:28N 17°34' W 061°49'0 0.0
2017-Dec-16 17:58N 17°34' W 061°49'0 0.0
2017-Dec-16 17:28N 17°34' W 061°49'0 0.0
2017-Dec-16 16:58N 17°34' W 061°49'2 3.8
2017-Dec-16 16:30N 17°33' W 061°48'2 4.7
2017-Dec-16 16:00N 17°33' W 061°45'0 0.0
2017-Dec-16 15:27N 17°33' W 061°45'0 0.0
2017-Dec-16 14:57N 17°33' W 061°45'0 0.0
2017-Dec-16 14:24N 17°33' W 061°45'0 0.0
2017-Dec-16 14:00N 17°33' W 061°45'0 0.0
2017-Dec-16 13:30N 17°33' W 061°45'0 0.0
2017-Dec-16 13:00N 17°33' W 061°45'0 0.0
2017-Dec-16 12:30N 17°33' W 061°45'0 0.0
2017-Dec-16 11:57N 17°33' W 061°45'0 0.0
2017-Dec-16 11:30N 17°33' W 061°45'0 0.0
2017-Dec-16 11:00N 17°33' W 061°45'0 0.0
2017-Dec-16 10:30N 17°33' W 061°45'0 0.0
2017-Dec-16 10:00N 17°33' W 061°45'0 0.0
2017-Dec-16 09:30N 17°33' W 061°45'0 0.0
2017-Dec-16 09:00N 17°33' W 061°45'0 0.0
2017-Dec-16 08:30N 17°33' W 061°45'0 0.0
2017-Dec-16 08:00N 17°33' W 061°45'0 0.0
2017-Dec-16 07:30N 17°33' W 061°45'0 0.0
2017-Dec-16 07:00N 17°33' W 061°45'0 0.0
2017-Dec-16 06:30N 17°33' W 061°45'0 0.0
2017-Dec-16 05:59N 17°33' W 061°45'0 0.0
2017-Dec-16 05:29N 17°33' W 061°45'0 0.0
2017-Dec-16 04:56N 17°33' W 061°45'0 0.0
2017-Dec-16 04:29N 17°33' W 061°45'0 0.0
2017-Dec-16 03:59N 17°33' W 061°45'0 0.0
2017-Dec-16 03:29N 17°33' W 061°45'0 0.0
2017-Dec-16 02:59N 17°33' W 061°45'0 0.0
2017-Dec-16 02:26N 17°33' W 061°45'0 0.0
2017-Dec-16 01:59N 17°33' W 061°45'0 0.0
2017-Dec-16 01:29N 17°33' W 061°45'0 0.0
2017-Dec-16 00:59N 17°33' W 061°45'0 0.0
2017-Dec-16 00:29N 17°33' W 061°45'0 0.0
2017-Dec-15 23:56N 17°33' W 061°45'0 0.0
2017-Dec-15 23:29N 17°33' W 061°45'0 0.0
2017-Dec-15 22:59N 17°33' W 061°45'0 0.0
2017-Dec-15 22:30N 17°33' W 061°45'0 0.0
2017-Dec-15 22:00N 17°33' W 061°45'0 0.0
2017-Dec-15 21:30N 17°33' W 061°45'1 2.3
2017-Dec-15 21:00N 17°32' W 061°46'3 5.5
2017-Dec-15 20:30N 17°31' W 061°49'3 5.4
2017-Dec-15 20:00N 17°29' W 061°51'4 7.3
2017-Dec-15 19:30N 17°26' W 061°52'3 6.9
2017-Dec-15 19:00N 17°22' W 061°53'3 6.9
2017-Dec-15 18:30N 17°19' W 061°53'3 6.6
2017-Dec-15 18:00N 17°16' W 061°54'3 6.3
2017-Dec-15 17:30N 17°13' W 061°54'3 6.9
2017-Dec-15 17:00N 17°09' W 061°54'2 4.9
2017-Dec-15 16:30N 17°07' W 061°52'0 0.0
2017-Dec-15 16:00N 17°07' W 061°52'0 0.0
2017-Dec-15 15:30N 17°07' W 061°52'0 0.0
2017-Dec-15 15:00N 17°07' W 061°52'0 0.3
2017-Dec-15 14:30N 17°07' W 061°52'0 0.0
2017-Dec-15 14:00N 17°07' W 061°52'0 0.0
2017-Dec-15 13:30N 17°07' W 061°52'0 0.0
2017-Dec-15 13:00N 17°07' W 061°52'0 0.0
2017-Dec-15 12:30N 17°07' W 061°52'0 0.0
2017-Dec-15 12:00N 17°07' W 061°52'0 0.0
2017-Dec-15 11:30N 17°07' W 061°52'0 0.0
2017-Dec-15 11:00N 17°07' W 061°52'0 0.0
2017-Dec-15 10:30N 17°07' W 061°52'0 0.0
2017-Dec-15 10:00N 17°07' W 061°52'0 0.0
2017-Dec-15 09:30N 17°07' W 061°52'0 0.0
2017-Dec-15 09:00N 17°07' W 061°52'0 0.0
2017-Dec-15 08:30N 17°07' W 061°52'0 0.0
2017-Dec-15 08:00N 17°07' W 061°52'0 0.0
2017-Dec-15 07:30N 17°07' W 061°52'0 0.0
2017-Dec-15 07:00N 17°07' W 061°52'0 0.0
2017-Dec-15 06:30N 17°07' W 061°52'0 0.0
2017-Dec-15 06:00N 17°07' W 061°52'0 0.0
2017-Dec-15 05:27N 17°07' W 061°52'0 0.0
2017-Dec-15 05:00N 17°07' W 061°52'0 0.0
2017-Dec-15 04:30N 17°07' W 061°52'0 0.0
2017-Dec-15 04:00N 17°07' W 061°52'0 0.0
2017-Dec-15 02:30N 17°07' W 061°52'0 0.0
2017-Dec-15 01:00N 17°07' W 061°52'0 0.0
2017-Dec-15 00:30N 17°07' W 061°52'0 0.0
2017-Dec-14 18:29N 17°07' W 061°52'0 0.0
2017-Dec-14 17:59N 17°07' W 061°52'0 0.0
2017-Dec-14 17:29N 17°07' W 061°52'0 0.0
2017-Dec-14 16:59N 17°07' W 061°52'0 0.0
2017-Dec-14 16:29N 17°07' W 061°52'0 0.0
2017-Dec-14 15:59N 17°07' W 061°52'0 0.0
2017-Dec-14 14:59N 17°07' W 061°52'0 0.0
2017-Dec-14 14:29N 17°07' W 061°52'0 0.0
2017-Dec-14 13:59N 17°07' W 061°52'0 0.0
2017-Dec-14 13:29N 17°07' W 061°52'0 0.0
2017-Dec-14 12:59N 17°07' W 061°52'0 0.0
2017-Dec-14 12:29N 17°07' W 061°52'0 0.0
2017-Dec-14 11:59N 17°07' W 061°52'0 0.1
2017-Dec-14 11:30N 17°07' W 061°52'2 4.0
2017-Dec-14 11:00N 17°09' W 061°54'3 5.4
2017-Dec-14 10:30N 17°11' W 061°55'1 1.5
2017-Dec-14 10:00N 17°12' W 061°55'2 4.6
2017-Dec-14 09:30N 17°14' W 061°56'1 1.8
2017-Dec-14 09:00N 17°14' W 061°57'1 2.0
2017-Dec-14 08:30N 17°13' W 061°56'1 3.0
2017-Dec-14 08:00N 17°13' W 061°55'4 7.1
2017-Dec-14 07:30N 17°17' W 061°55'4 7.4
2017-Dec-14 07:00N 17°17' W 061°52'4 7.6
2017-Dec-14 06:30N 17°18' W 061°48'4 7.5
2017-Dec-14 06:00N 17°18' W 061°44'4 7.1
2017-Dec-14 05:30N 17°16' W 061°40'4 7.9
2017-Dec-14 05:00N 17°14' W 061°37'4 7.9
2017-Dec-14 04:30N 17°11' W 061°34'2 3.0
2017-Dec-14 04:00N 17°12' W 061°32'1 2.9
2017-Dec-14 03:30N 17°13' W 061°31'0 0.3
2017-Dec-14 03:00N 17°13' W 061°31'1 1.1
2017-Dec-14 02:30N 17°13' W 061°31'0 0.7
2017-Dec-14 02:00N 17°13' W 061°31'1 2.2
2017-Dec-14 01:30N 17°12' W 061°31'4 8.0
2017-Dec-14 01:00N 17°08' W 061°33'4 8.0
2017-Dec-14 00:30N 17°05' W 061°34'4 7.9
2017-Dec-14 00:00N 17°01' W 061°36'4 7.8
2017-Dec-13 23:30N 16°57' W 061°37'4 7.7
2017-Dec-13 23:00N 16°54' W 061°38'4 7.2
2017-Dec-13 22:30N 16°50' W 061°40'4 7.1
2017-Dec-13 22:00N 16°48' W 061°43'4 7.0
2017-Dec-13 21:30N 16°47' W 061°46'4 7.0
2017-Dec-13 21:00N 16°45' W 061°50'1 2.4
2017-Dec-13 20:30N 16°44' W 061°51'1 1.2
2017-Dec-13 20:00N 16°44' W 061°50'1 1.2
2017-Dec-13 19:30N 16°44' W 061°49'3 5.3
2017-Dec-13 19:00N 16°46' W 061°48'3 6.1
2017-Dec-13 18:30N 16°49' W 061°47'3 5.8
2017-Dec-13 18:00N 16°49' W 061°50'4 7.2
2017-Dec-13 17:30N 16°48' W 061°53'3 6.9
2017-Dec-13 17:00N 16°47' W 061°57'3 6.9
2017-Dec-13 16:30N 16°45' W 062°00'3 6.8
2017-Dec-13 16:00N 16°44' W 062°03'3 6.6
2017-Dec-13 15:30N 16°44' W 062°07'3 6.1
2017-Dec-13 15:00N 16°47' W 062°08'2 4.9
2017-Dec-13 14:30N 16°49' W 062°09'2 3.3
2017-Dec-13 14:00N 16°50' W 062°10'3 5.0
2017-Dec-13 13:30N 16°49' W 062°13'1 0.6
2017-Dec-13 11:11N 16°48' W 062°13'0 0.0
2017-Dec-13 07:32N 16°48' W 062°13'0 0.0
2017-Dec-13 07:26N 16°48' W 062°13'0 0.0
2017-Dec-13 06:59N 16°48' W 062°13'0 0.0
2017-Dec-13 03:29N 16°48' W 062°13'0 0.0
2017-Dec-13 00:35N 16°48' W 062°13'0 0.0
2017-Dec-13 00:08N 16°48' W 062°13'0 0.0
2017-Dec-12 23:35N 16°48' W 062°13'0 0.0
2017-Dec-12 23:29N 16°48' W 062°13'0 0.0
2017-Dec-12 22:50N 16°48' W 062°13'0 0.0
2017-Dec-12 22:26N 16°48' W 062°13'0 0.0
2017-Dec-12 21:56N 16°48' W 062°13'0 0.0
2017-Dec-12 21:29N 16°48' W 062°13'0 0.0
2017-Dec-12 20:38N 16°48' W 062°13'0 0.0
2017-Dec-12 20:29N 16°48' W 062°13'0 0.0
2017-Dec-12 19:59N 16°48' W 062°13'0 0.0
2017-Dec-12 19:08N 16°48' W 062°13'0 0.0
2017-Dec-12 18:59N 16°48' W 062°13'0 0.0
2017-Dec-12 18:23N 16°48' W 062°13'0 0.0
2017-Dec-12 17:59N 16°48' W 062°13'0 0.0
2017-Dec-12 15:14N 16°48' W 062°13'0 0.0
2017-Dec-12 14:35N 16°48' W 062°13'0 0.0
2017-Dec-12 14:14N 16°48' W 062°13'0 0.0
2017-Dec-12 13:56N 16°48' W 062°13'0 0.0
2017-Dec-12 12:38N 16°48' W 062°13'0 0.0
2017-Dec-12 12:17N 16°48' W 062°13'0 0.0
2017-Dec-12 11:47N 16°48' W 062°13'0 0.1
2017-Dec-12 11:29N 16°48' W 062°13'0 0.0
2017-Dec-12 10:41N 16°48' W 062°13'0 0.0
2017-Dec-12 09:14N 16°48' W 062°13'0 0.0
2017-Dec-12 08:59N 16°48' W 062°13'0 0.0
2017-Dec-12 08:19N 16°48' W 062°13'0 0.0
2017-Dec-12 07:25N 16°48' W 062°13'0 0.0
2017-Dec-12 05:16N 16°48' W 062°13'0 0.0
2017-Dec-12 04:37N 16°48' W 062°13'0 0.0
2017-Dec-12 04:22N 16°48' W 062°13'0 0.0
2017-Dec-12 03:55N 16°48' W 062°13'0 0.0
2017-Dec-12 03:25N 16°48' W 062°13'0 0.0
2017-Dec-12 02:52N 16°48' W 062°13'0 0.0
2017-Dec-12 00:52N 16°48' W 062°13'0 0.0
2017-Dec-12 00:28N 16°48' W 062°13'0 0.0
2017-Dec-11 23:22N 16°48' W 062°13'0 0.0
2017-Dec-11 23:00N 16°48' W 062°13'0 0.0
2017-Dec-11 22:30N 16°48' W 062°13'0 0.0
2017-Dec-11 21:57N 16°48' W 062°13'0 0.0
2017-Dec-11 21:30N 16°48' W 062°13'0 0.0
2017-Dec-11 21:00N 16°48' W 062°13'0 0.0
2017-Dec-11 20:30N 16°48' W 062°13'0 0.0
2017-Dec-11 19:59N 16°48' W 062°13'0 0.0
2017-Dec-11 19:29N 16°48' W 062°13'0 0.0
2017-Dec-11 18:56N 16°48' W 062°13'0 0.0
2017-Dec-11 18:30N 16°48' W 062°13'0 0.0
2017-Dec-11 18:00N 16°48' W 062°13'0 0.0
2017-Dec-11 17:28N 16°48' W 062°13'0 0.0
2017-Dec-11 17:00N 16°48' W 062°13'0 0.0
2017-Dec-11 16:29N 16°48' W 062°13'0 0.0
2017-Dec-11 16:00N 16°48' W 062°13'0 0.0
2017-Dec-11 15:30N 16°48' W 062°13'0 0.0
2017-Dec-11 15:00N 16°48' W 062°13'0 0.0
2017-Dec-11 14:28N 16°48' W 062°13'0 0.0
2017-Dec-11 14:00N 16°48' W 062°13'0 0.0
2017-Dec-11 13:30N 16°48' W 062°13'0 0.0
2017-Dec-11 13:00N 16°48' W 062°13'1 2.6
2017-Dec-11 12:30N 16°47' W 062°13'1 0.2
2017-Dec-11 07:51N 16°46' W 062°14'0 0.0
2017-Dec-11 07:24N 16°46' W 062°14'  
Track history (hours):
 
Tides and Currents Weather Stations Pressure Air Temp Water Temp Dewpoint Dewpoint Depression Visibility Wind Speed Wind Dir Waves Ship Positions

Oceanographic research ship Corwith Cramer (USA)

Ship's website: http://www.sea.edu/sea2000/AboutSEA2000/cramer.htm

Detailed information on ship capabilities available from University of Delaware's Ocean Information Center.

Owner: SEA EDUCATION ASSOCIATION, WOODS HOLE, MA. More information available from US FCC via Universal Licensing System and Coast Guard Vessel Documentation Center.

Last reported at 2017-Dec-21 07:03 UTC. Time now 2018-Feb-21 17:40 UTC.
Position N 18°19' W 063°34'.
Warning: this ship's position is months out of date.

Type: Sailing vessel. MMSI: 366724450.

Date/timePositionNaut miles runAvg speedWind from/ knotsBaromVisibWave heightAir tempDewpointWater temp
2017-Dec-21 07:03N 18°19' W 063°34'1 4.7
2017-Dec-21 06:54N 18°18' W 063°33'2 4.0
2017-Dec-21 06:30N 18°17' W 063°33'2 4.1
2017-Dec-21 05:59N 18°15' W 063°32'2 4.1
2017-Dec-21 05:30N 18°13' W 063°31'2 4.2
2017-Dec-21 04:59N 18°11' W 063°29'2 4.3
2017-Dec-21 04:30N 18°09' W 063°28'2 3.9
2017-Dec-21 04:00N 18°08' W 063°27'0 0.8
2017-Dec-21 03:31N 18°08' W 063°27'1 2.2
2017-Dec-21 02:59N 18°09' W 063°27'1 2.9
2017-Dec-21 02:30N 18°08' W 063°26'2 4.6
2017-Dec-21 01:59N 18°05' W 063°25'2 4.5
2017-Dec-21 01:30N 18°03' W 063°25'3 5.2
2017-Dec-21 01:00N 18°01' W 063°24'3 4.7
2017-Dec-21 00:25N 17°58' W 063°22'2 4.9
2017-Dec-21 00:00N 17°57' W 063°21'2 3.7
2017-Dec-20 23:30N 17°55' W 063°21'2 4.1
2017-Dec-20 22:57N 17°53' W 063°19'2 4.9
2017-Dec-20 22:30N 17°51' W 063°18'3 5.1
2017-Dec-20 22:00N 17°49' W 063°17'3 5.2
2017-Dec-20 21:28N 17°46' W 063°16'1 2.6
2017-Dec-20 21:00N 17°45' W 063°15'1 1.0
2017-Dec-20 20:27N 17°46' W 063°14'0 0.9
2017-Dec-20 19:59N 17°46' W 063°14'0 1.0
2017-Dec-20 19:29N 17°46' W 063°14'0 0.9
2017-Dec-20 18:59N 17°46' W 063°13'1 0.9
2017-Dec-20 18:19N 17°47' W 063°13'1 2.0
2017-Dec-20 18:00N 17°47' W 063°12'2 4.9
2017-Dec-20 17:30N 17°49' W 063°12'3 5.2
2017-Dec-20 17:00N 17°52' W 063°12'3 5.3
2017-Dec-20 16:29N 17°54' W 063°11'1 2.7
2017-Dec-20 15:58N 17°56' W 063°11'1 2.3
2017-Dec-20 15:28N 17°57' W 063°11'46 6.2
2017-Dec-20 08:04N 17°25' W 062°36'1 5.9
2017-Dec-20 07:56N 17°24' W 062°35'2 5.9
2017-Dec-20 07:30N 17°23' W 062°33'3 5.1
2017-Dec-20 07:00N 17°22' W 062°31'2 4.2
2017-Dec-20 06:30N 17°21' W 062°29'1 1.7
2017-Dec-20 05:59N 17°22' W 062°28'1 1.6
2017-Dec-20 05:31N 17°23' W 062°28'3 5.5
2017-Dec-20 05:00N 17°22' W 062°25'3 5.8
2017-Dec-20 04:30N 17°20' W 062°23'3 5.3
2017-Dec-20 04:00N 17°19' W 062°20'3 5.5
2017-Dec-20 03:30N 17°18' W 062°17'3 5.4
2017-Dec-20 03:00N 17°17' W 062°15'3 5.4
2017-Dec-20 02:30N 17°16' W 062°12'3 5.3
2017-Dec-20 02:00N 17°15' W 062°10'3 5.8
2017-Dec-20 01:31N 17°14' W 062°07'3 5.9
2017-Dec-20 01:01N 17°13' W 062°04'3 5.5
2017-Dec-20 00:31N 17°11' W 062°02'3 5.2
2017-Dec-20 00:00N 17°10' W 061°59'2 4.8
2017-Dec-19 23:31N 17°10' W 061°57'2 4.0
2017-Dec-19 23:00N 17°09' W 061°55'2 3.3
2017-Dec-19 22:31N 17°08' W 061°53'1 1.2
2017-Dec-19 22:00N 17°08' W 061°53'0 0.0
2017-Dec-19 21:30N 17°08' W 061°53'0 0.0
2017-Dec-19 21:01N 17°08' W 061°53'0 0.0
2017-Dec-19 20:31N 17°08' W 061°53'0 0.0
2017-Dec-19 20:00N 17°08' W 061°53'0 0.0
2017-Dec-19 19:30N 17°08' W 061°52'3 5.1
2017-Dec-19 19:01N 17°09' W 061°55'4 7.2
2017-Dec-19 18:30N 17°12' W 061°57'4 7.5
2017-Dec-19 18:01N 17°15' W 061°60'4 7.5
2017-Dec-19 17:31N 17°18' W 062°02'2 4.7
2017-Dec-19 17:01N 17°20' W 062°03'1 1.8
2017-Dec-19 16:30N 17°21' W 062°03'1 1.9
2017-Dec-19 16:00N 17°22' W 062°02'1 2.1
2017-Dec-19 15:30N 17°23' W 062°02'1 1.3
2017-Dec-19 15:01N 17°24' W 062°02'1 2.5
2017-Dec-19 14:31N 17°25' W 062°01'4 8.0
2017-Dec-19 14:01N 17°28' W 061°60'4 7.9
2017-Dec-19 13:30N 17°32' W 061°57'4 7.2
2017-Dec-19 13:00N 17°35' W 061°55'3 6.0
2017-Dec-19 12:31N 17°37' W 061°54'2 4.1
2017-Dec-19 11:58N 17°39' W 061°52'0 0.0
2017-Dec-19 11:28N 17°39' W 061°52'0 0.0
2017-Dec-19 10:58N 17°39' W 061°52'0 0.0
2017-Dec-19 10:28N 17°39' W 061°52'0 0.0
2017-Dec-19 09:58N 17°39' W 061°52'0 0.0
2017-Dec-19 09:28N 17°39' W 061°52'0 0.0
2017-Dec-19 08:58N 17°39' W 061°52'0 0.0
2017-Dec-19 08:28N 17°39' W 061°52'0 0.0
2017-Dec-19 07:58N 17°39' W 061°52'0 0.0
2017-Dec-19 07:28N 17°39' W 061°52'0 0.0
2017-Dec-19 06:58N 17°39' W 061°52'0 0.0
2017-Dec-19 06:28N 17°39' W 061°52'0 0.0
2017-Dec-19 05:55N 17°39' W 061°52'0 0.0
2017-Dec-19 05:28N 17°39' W 061°52'0 0.0
2017-Dec-19 04:58N 17°39' W 061°52'0 0.0
2017-Dec-19 04:28N 17°39' W 061°52'0 0.0
2017-Dec-19 03:58N 17°39' W 061°52'0 0.0
2017-Dec-19 03:28N 17°39' W 061°52'0 0.0
2017-Dec-19 02:58N 17°39' W 061°52'0 0.0
2017-Dec-19 02:28N 17°39' W 061°52'0 0.0
2017-Dec-19 02:01N 17°39' W 061°52'0 0.0
2017-Dec-19 01:28N 17°39' W 061°52'0 0.0
2017-Dec-19 00:54N 17°39' W 061°52'0 0.0
2017-Dec-19 00:30N 17°39' W 061°52'0 0.0
2017-Dec-19 00:00N 17°39' W 061°52'0 0.0
2017-Dec-18 23:30N 17°39' W 061°52'0 0.0
2017-Dec-18 22:57N 17°39' W 061°52'0 0.0
2017-Dec-18 22:30N 17°39' W 061°52'0 0.0
2017-Dec-18 21:57N 17°39' W 061°52'0 0.0
2017-Dec-18 21:27N 17°39' W 061°52'0 0.0
2017-Dec-18 21:00N 17°39' W 061°52'0 0.0
2017-Dec-18 20:30N 17°39' W 061°52'0 0.0
2017-Dec-18 20:00N 17°39' W 061°52'0 0.0
2017-Dec-18 19:30N 17°39' W 061°52'0 0.0
2017-Dec-18 19:00N 17°39' W 061°52'0 0.0
2017-Dec-18 18:30N 17°39' W 061°52'0 0.0
2017-Dec-18 18:00N 17°39' W 061°52'0 0.0
2017-Dec-18 17:30N 17°39' W 061°52'0 0.0
2017-Dec-18 17:00N 17°39' W 061°52'0 0.0
2017-Dec-18 16:30N 17°39' W 061°52'0 0.0
2017-Dec-18 16:00N 17°39' W 061°52'0 0.0
2017-Dec-18 15:30N 17°39' W 061°52'0 0.0
2017-Dec-18 15:00N 17°39' W 061°52'0 0.0
2017-Dec-18 14:30N 17°39' W 061°52'0 0.0
2017-Dec-18 14:00N 17°39' W 061°52'0 0.0
2017-Dec-18 13:27N 17°39' W 061°52'0 0.0
2017-Dec-18 13:00N 17°39' W 061°52'0 0.0
2017-Dec-18 12:30N 17°39' W 061°52'0 0.0
2017-Dec-18 12:00N 17°39' W 061°52'0 0.0
2017-Dec-18 11:30N 17°39' W 061°52'0 0.0
2017-Dec-18 10:57N 17°39' W 061°52'0 0.0
2017-Dec-18 10:30N 17°39' W 061°52'0 0.0
2017-Dec-18 10:00N 17°39' W 061°52'0 0.0
2017-Dec-18 09:30N 17°39' W 061°52'0 0.0
2017-Dec-18 08:57N 17°39' W 061°52'0 0.0
2017-Dec-18 08:30N 17°39' W 061°52'0 0.0
2017-Dec-18 08:00N 17°39' W 061°52'0 0.0
2017-Dec-18 07:30N 17°39' W 061°52'0 0.0
2017-Dec-18 07:00N 17°39' W 061°52'0 0.0
2017-Dec-18 06:30N 17°39' W 061°52'0 0.0
2017-Dec-18 06:00N 17°39' W 061°52'0 0.0
2017-Dec-18 05:27N 17°39' W 061°52'0 0.0
2017-Dec-18 05:00N 17°39' W 061°52'0 0.0
2017-Dec-18 04:30N 17°39' W 061°52'0 0.0
2017-Dec-18 03:57N 17°39' W 061°52'0 0.0
2017-Dec-18 03:27N 17°39' W 061°52'0 0.0
2017-Dec-18 02:57N 17°39' W 061°52'0 0.0
2017-Dec-18 02:30N 17°39' W 061°52'0 0.0
2017-Dec-18 01:57N 17°39' W 061°52'0 0.0
2017-Dec-18 01:30N 17°39' W 061°52'0 0.0
2017-Dec-18 00:57N 17°39' W 061°52'0 0.0
2017-Dec-18 00:27N 17°39' W 061°52'0 0.0
2017-Dec-18 00:00N 17°39' W 061°52'0 0.0
2017-Dec-17 23:27N 17°39' W 061°52'0 0.0
2017-Dec-17 22:57N 17°39' W 061°52'0 0.0
2017-Dec-17 22:30N 17°39' W 061°52'0 0.0
2017-Dec-17 22:00N 17°39' W 061°52'0 0.0
2017-Dec-17 21:30N 17°39' W 061°52'0 0.0
2017-Dec-17 21:00N 17°39' W 061°52'0 0.0
2017-Dec-17 20:27N 17°39' W 061°52'0 0.0
2017-Dec-17 20:00N 17°39' W 061°52'0 0.0
2017-Dec-17 19:30N 17°39' W 061°52'0 0.0
2017-Dec-17 19:00N 17°39' W 061°52'0 0.0
2017-Dec-17 18:30N 17°39' W 061°52'0 0.0
2017-Dec-17 18:00N 17°39' W 061°52'0 0.0
2017-Dec-17 17:30N 17°39' W 061°52'0 0.0
2017-Dec-17 17:00N 17°39' W 061°52'0 0.0
2017-Dec-17 16:30N 17°39' W 061°52'0 0.0
2017-Dec-17 15:59N 17°39' W 061°52'0 0.0
2017-Dec-17 15:29N 17°39' W 061°52'0 0.0
2017-Dec-17 14:58N 17°39' W 061°52'0 0.0
2017-Dec-17 14:30N 17°39' W 061°52'0 0.0
2017-Dec-17 14:00N 17°39' W 061°52'0 0.0
2017-Dec-17 13:31N 17°39' W 061°52'0 0.0
2017-Dec-17 13:00N 17°39' W 061°52'2 3.9
2017-Dec-17 12:31N 17°37' W 061°53'3 6.1
2017-Dec-17 12:01N 17°34' W 061°52'3 5.2
2017-Dec-17 11:29N 17°34' W 061°49'0 0.0
2017-Dec-17 10:56N 17°34' W 061°49'0 0.0
2017-Dec-17 10:29N 17°34' W 061°49'0 0.0
2017-Dec-17 09:59N 17°34' W 061°49'0 0.0
2017-Dec-17 09:29N 17°34' W 061°49'0 0.0
2017-Dec-17 08:56N 17°34' W 061°49'0 0.0
2017-Dec-17 08:29N 17°34' W 061°49'0 0.0
2017-Dec-17 07:59N 17°34' W 061°49'0 0.0
2017-Dec-17 07:26N 17°34' W 061°49'0 0.0
2017-Dec-17 06:59N 17°34' W 061°49'0 0.0
2017-Dec-17 06:29N 17°34' W 061°49'0 0.0
2017-Dec-17 05:56N 17°34' W 061°49'0 0.0
2017-Dec-17 05:26N 17°34' W 061°49'0 0.0
2017-Dec-17 04:59N 17°34' W 061°49'0 0.0
2017-Dec-17 04:29N 17°34' W 061°49'0 0.0
2017-Dec-17 03:58N 17°34' W 061°49'0 0.0
2017-Dec-17 03:28N 17°34' W 061°49'0 0.0
2017-Dec-17 02:58N 17°34' W 061°49'0 0.0
2017-Dec-17 02:28N 17°34' W 061°49'0 0.0
2017-Dec-17 01:58N 17°34' W 061°49'0 0.0
2017-Dec-17 01:28N 17°34' W 061°49'0 0.0
2017-Dec-17 00:58N 17°34' W 061°49'0 0.0
2017-Dec-17 00:28N 17°34' W 061°49'0 0.0
2017-Dec-16 23:58N 17°34' W 061°49'0 0.0
2017-Dec-16 23:28N 17°34' W 061°49'0 0.0
2017-Dec-16 22:58N 17°34' W 061°49'0 0.0
2017-Dec-16 22:28N 17°34' W 061°49'0 0.0
2017-Dec-16 21:58N 17°34' W 061°49'0 0.0
2017-Dec-16 21:28N 17°34' W 061°49'0 0.0
2017-Dec-16 20:58N 17°34' W 061°49'0 0.0
2017-Dec-16 20:28N 17°34' W 061°49'0 0.0
2017-Dec-16 19:58N 17°34' W 061°49'0 0.0
2017-Dec-16 19:28N 17°34' W 061°49'0 0.0
2017-Dec-16 18:58N 17°34' W 061°49'0 0.0
2017-Dec-16 18:28N 17°34' W 061°49'0 0.0
2017-Dec-16 17:58N 17°34' W 061°49'0 0.0
2017-Dec-16 17:28N 17°34' W 061°49'0 0.0
2017-Dec-16 16:58N 17°34' W 061°49'2 3.8
2017-Dec-16 16:30N 17°33' W 061°48'2 4.7
2017-Dec-16 16:00N 17°33' W 061°45'0 0.0
2017-Dec-16 15:27N 17°33' W 061°45'0 0.0
2017-Dec-16 14:57N 17°33' W 061°45'0 0.0
2017-Dec-16 14:24N 17°33' W 061°45'0 0.0
2017-Dec-16 14:00N 17°33' W 061°45'0 0.0
2017-Dec-16 13:30N 17°33' W 061°45'0 0.0
2017-Dec-16 13:00N 17°33' W 061°45'0 0.0
2017-Dec-16 12:30N 17°33' W 061°45'0 0.0
2017-Dec-16 11:57N 17°33' W 061°45'0 0.0
2017-Dec-16 11:30N 17°33' W 061°45'0 0.0
2017-Dec-16 11:00N 17°33' W 061°45'0 0.0
2017-Dec-16 10:30N 17°33' W 061°45'0 0.0
2017-Dec-16 10:00N 17°33' W 061°45'0 0.0
2017-Dec-16 09:30N 17°33' W 061°45'0 0.0
2017-Dec-16 09:00N 17°33' W 061°45'0 0.0
2017-Dec-16 08:30N 17°33' W 061°45'0 0.0
2017-Dec-16 08:00N 17°33' W 061°45'0 0.0
2017-Dec-16 07:30N 17°33' W 061°45'0 0.0
2017-Dec-16 07:00N 17°33' W 061°45'0 0.0
2017-Dec-16 06:30N 17°33' W 061°45'0 0.0
2017-Dec-16 05:59N 17°33' W 061°45'0 0.0
2017-Dec-16 05:29N 17°33' W 061°45'0 0.0
2017-Dec-16 04:56N 17°33' W 061°45'0 0.0
2017-Dec-16 04:29N 17°33' W 061°45'0 0.0
2017-Dec-16 03:59N 17°33' W 061°45'0 0.0
2017-Dec-16 03:29N 17°33' W 061°45'0 0.0
2017-Dec-16 02:59N 17°33' W 061°45'0 0.0
2017-Dec-16 02:26N 17°33' W 061°45'0 0.0
2017-Dec-16 01:59N 17°33' W 061°45'0 0.0
2017-Dec-16 01:29N 17°33' W 061°45'0 0.0
2017-Dec-16 00:59N 17°33' W 061°45'0 0.0
2017-Dec-16 00:29N 17°33' W 061°45'0 0.0
2017-Dec-15 23:56N 17°33' W 061°45'0 0.0
2017-Dec-15 23:29N 17°33' W 061°45'0 0.0
2017-Dec-15 22:59N 17°33' W 061°45'0 0.0
2017-Dec-15 22:30N 17°33' W 061°45'0 0.0
2017-Dec-15 22:00N 17°33' W 061°45'0 0.0
2017-Dec-15 21:30N 17°33' W 061°45'1 2.3
2017-Dec-15 21:00N 17°32' W 061°46'3 5.5
2017-Dec-15 20:30N 17°31' W 061°49'3 5.4
2017-Dec-15 20:00N 17°29' W 061°51'4 7.3
2017-Dec-15 19:30N 17°26' W 061°52'3 6.9
2017-Dec-15 19:00N 17°22' W 061°53'3 6.9
2017-Dec-15 18:30N 17°19' W 061°53'3 6.6
2017-Dec-15 18:00N 17°16' W 061°54'3 6.3
2017-Dec-15 17:30N 17°13' W 061°54'3 6.9
2017-Dec-15 17:00N 17°09' W 061°54'2 4.9
2017-Dec-15 16:30N 17°07' W 061°52'0 0.0
2017-Dec-15 16:00N 17°07' W 061°52'0 0.0
2017-Dec-15 15:30N 17°07' W 061°52'0 0.0
2017-Dec-15 15:00N 17°07' W 061°52'0 0.3
2017-Dec-15 14:30N 17°07' W 061°52'0 0.0
2017-Dec-15 14:00N 17°07' W 061°52'0 0.0
2017-Dec-15 13:30N 17°07' W 061°52'0 0.0
2017-Dec-15 13:00N 17°07' W 061°52'0 0.0
2017-Dec-15 12:30N 17°07' W 061°52'0 0.0
2017-Dec-15 12:00N 17°07' W 061°52'0 0.0
2017-Dec-15 11:30N 17°07' W 061°52'0 0.0
2017-Dec-15 11:00N 17°07' W 061°52'0 0.0
2017-Dec-15 10:30N 17°07' W 061°52'0 0.0
2017-Dec-15 10:00N 17°07' W 061°52'0 0.0
2017-Dec-15 09:30N 17°07' W 061°52'0 0.0
2017-Dec-15 09:00N 17°07' W 061°52'0 0.0
2017-Dec-15 08:30N 17°07' W 061°52'0 0.0
2017-Dec-15 08:00N 17°07' W 061°52'0 0.0
2017-Dec-15 07:30N 17°07' W 061°52'0 0.0
2017-Dec-15 07:00N 17°07' W 061°52'0 0.0
2017-Dec-15 06:30N 17°07' W 061°52'0 0.0
2017-Dec-15 06:00N 17°07' W 061°52'0 0.0
2017-Dec-15 05:27N 17°07' W 061°52'0 0.0
2017-Dec-15 05:00N 17°07' W 061°52'0 0.0
2017-Dec-15 04:30N 17°07' W 061°52'0 0.0
2017-Dec-15 04:00N 17°07' W 061°52'0 0.0
2017-Dec-15 02:30N 17°07' W 061°52'0 0.0
2017-Dec-15 01:00N 17°07' W 061°52'0 0.0
2017-Dec-15 00:30N 17°07' W 061°52'0 0.0
2017-Dec-14 18:29N 17°07' W 061°52'0 0.0
2017-Dec-14 17:59N 17°07' W 061°52'0 0.0
2017-Dec-14 17:29N 17°07' W 061°52'0 0.0
2017-Dec-14 16:59N 17°07' W 061°52'0 0.0
2017-Dec-14 16:29N 17°07' W 061°52'0 0.0
2017-Dec-14 15:59N 17°07' W 061°52'0 0.0
2017-Dec-14 14:59N 17°07' W 061°52'0 0.0
2017-Dec-14 14:29N 17°07' W 061°52'0 0.0
2017-Dec-14 13:59N 17°07' W 061°52'0 0.0
2017-Dec-14 13:29N 17°07' W 061°52'0 0.0
2017-Dec-14 12:59N 17°07' W 061°52'0 0.0
2017-Dec-14 12:29N 17°07' W 061°52'0 0.0
2017-Dec-14 11:59N 17°07' W 061°52'0 0.1
2017-Dec-14 11:30N 17°07' W 061°52'2 4.0
2017-Dec-14 11:00N 17°09' W 061°54'3 5.4
2017-Dec-14 10:30N 17°11' W 061°55'1 1.5
2017-Dec-14 10:00N 17°12' W 061°55'2 4.6
2017-Dec-14 09:30N 17°14' W 061°56'1 1.8
2017-Dec-14 09:00N 17°14' W 061°57'1 2.0
2017-Dec-14 08:30N 17°13' W 061°56'1 3.0
2017-Dec-14 08:00N 17°13' W 061°55'4 7.1
2017-Dec-14 07:30N 17°17' W 061°55'4 7.4
2017-Dec-14 07:00N 17°17' W 061°52'4 7.6
2017-Dec-14 06:30N 17°18' W 061°48'4 7.5
2017-Dec-14 06:00N 17°18' W 061°44'4 7.1
2017-Dec-14 05:30N 17°16' W 061°40'4 7.9
2017-Dec-14 05:00N 17°14' W 061°37'4 7.9
2017-Dec-14 04:30N 17°11' W 061°34'2 3.0
2017-Dec-14 04:00N 17°12' W 061°32'1 2.9
2017-Dec-14 03:30N 17°13' W 061°31'0 0.3
2017-Dec-14 03:00N 17°13' W 061°31'1 1.1
2017-Dec-14 02:30N 17°13' W 061°31'0 0.7
2017-Dec-14 02:00N 17°13' W 061°31'1 2.2
2017-Dec-14 01:30N 17°12' W 061°31'4 8.0
2017-Dec-14 01:00N 17°08' W 061°33'4 8.0
2017-Dec-14 00:30N 17°05' W 061°34'4 7.9
2017-Dec-14 00:00N 17°01' W 061°36'4 7.8
2017-Dec-13 23:30N 16°57' W 061°37'4 7.7
2017-Dec-13 23:00N 16°54' W 061°38'4 7.2
2017-Dec-13 22:30N 16°50' W 061°40'4 7.1
2017-Dec-13 22:00N 16°48' W 061°43'4 7.0
2017-Dec-13 21:30N 16°47' W 061°46'4 7.0
2017-Dec-13 21:00N 16°45' W 061°50'1 2.4
2017-Dec-13 20:30N 16°44' W 061°51'1 1.2
2017-Dec-13 20:00N 16°44' W 061°50'1 1.2
2017-Dec-13 19:30N 16°44' W 061°49'3 5.3
2017-Dec-13 19:00N 16°46' W 061°48'3 6.1
2017-Dec-13 18:30N 16°49' W 061°47'3 5.8
2017-Dec-13 18:00N 16°49' W 061°50'4 7.2
2017-Dec-13 17:30N 16°48' W 061°53'3 6.9
2017-Dec-13 17:00N 16°47' W 061°57'3 6.9
2017-Dec-13 16:30N 16°45' W 062°00'3 6.8
2017-Dec-13 16:00N 16°44' W 062°03'3 6.6
2017-Dec-13 15:30N 16°44' W 062°07'3 6.1
2017-Dec-13 15:00N 16°47' W 062°08'2 4.9
2017-Dec-13 14:30N 16°49' W 062°09'2 3.3
2017-Dec-13 14:00N 16°50' W 062°10'3 5.0
2017-Dec-13 13:30N 16°49' W 062°13'1 0.6
2017-Dec-13 11:11N 16°48' W 062°13'0 0.0
2017-Dec-13 07:32N 16°48' W 062°13'0 0.0
2017-Dec-13 07:26N 16°48' W 062°13'0 0.0
2017-Dec-13 06:59N 16°48' W 062°13'0 0.0
2017-Dec-13 03:29N 16°48' W 062°13'0 0.0
2017-Dec-13 00:35N 16°48' W 062°13'0 0.0
2017-Dec-13 00:08N 16°48' W 062°13'0 0.0
2017-Dec-12 23:35N 16°48' W 062°13'0 0.0
2017-Dec-12 23:29N 16°48' W 062°13'0 0.0
2017-Dec-12 22:50N 16°48' W 062°13'0 0.0
2017-Dec-12 22:26N 16°48' W 062°13'0 0.0
2017-Dec-12 21:56N 16°48' W 062°13'0 0.0
2017-Dec-12 21:29N 16°48' W 062°13'0 0.0
2017-Dec-12 20:38N 16°48' W 062°13'0 0.0
2017-Dec-12 20:29N 16°48' W 062°13'0 0.0
2017-Dec-12 19:59N 16°48' W 062°13'0 0.0
2017-Dec-12 19:08N 16°48' W 062°13'0 0.0
2017-Dec-12 18:59N 16°48' W 062°13'0 0.0
2017-Dec-12 18:23N 16°48' W 062°13'0 0.0
2017-Dec-12 17:59N 16°48' W 062°13'0 0.0
2017-Dec-12 15:14N 16°48' W 062°13'0 0.0
2017-Dec-12 14:35N 16°48' W 062°13'0 0.0
2017-Dec-12 14:14N 16°48' W 062°13'0 0.0
2017-Dec-12 13:56N 16°48' W 062°13'0 0.0
2017-Dec-12 12:38N 16°48' W 062°13'0 0.0
2017-Dec-12 12:17N 16°48' W 062°13'0 0.0
2017-Dec-12 11:47N 16°48' W 062°13'0 0.1
2017-Dec-12 11:29N 16°48' W 062°13'0 0.0
2017-Dec-12 10:41N 16°48' W 062°13'0 0.0
2017-Dec-12 09:14N 16°48' W 062°13'0 0.0
2017-Dec-12 08:59N 16°48' W 062°13'0 0.0
2017-Dec-12 08:19N 16°48' W 062°13'0 0.0
2017-Dec-12 07:25N 16°48' W 062°13'0 0.0
2017-Dec-12 05:16N 16°48' W 062°13'0 0.0
2017-Dec-12 04:37N 16°48' W 062°13'0 0.0
2017-Dec-12 04:22N 16°48' W 062°13'0 0.0
2017-Dec-12 03:55N 16°48' W 062°13'0 0.0
2017-Dec-12 03:25N 16°48' W 062°13'0 0.0
2017-Dec-12 02:52N 16°48' W 062°13'0 0.0
2017-Dec-12 00:52N 16°48' W 062°13'0 0.0
2017-Dec-12 00:28N 16°48' W 062°13'0 0.0
2017-Dec-11 23:22N 16°48' W 062°13'0 0.0
2017-Dec-11 23:00N 16°48' W 062°13'0 0.0
2017-Dec-11 22:30N 16°48' W 062°13'0 0.0
2017-Dec-11 21:57N 16°48' W 062°13'0 0.0
2017-Dec-11 21:30N 16°48' W 062°13'0 0.0
2017-Dec-11 21:00N 16°48' W 062°13'0 0.0
2017-Dec-11 20:30N 16°48' W 062°13'0 0.0
2017-Dec-11 19:59N 16°48' W 062°13'0 0.0
2017-Dec-11 19:29N 16°48' W 062°13'0 0.0
2017-Dec-11 18:56N 16°48' W 062°13'0 0.0
2017-Dec-11 18:30N 16°48' W 062°13'0 0.0
2017-Dec-11 18:00N 16°48' W 062°13'0 0.0
2017-Dec-11 17:28N 16°48' W 062°13'0 0.0
2017-Dec-11 17:00N 16°48' W 062°13'0 0.0
2017-Dec-11 16:29N 16°48' W 062°13'0 0.0
2017-Dec-11 16:00N 16°48' W 062°13'0 0.0
2017-Dec-11 15:30N 16°48' W 062°13'0 0.0
2017-Dec-11 15:00N 16°48' W 062°13'0 0.0
2017-Dec-11 14:28N 16°48' W 062°13'0 0.0
2017-Dec-11 14:00N 16°48' W 062°13'0 0.0
2017-Dec-11 13:30N 16°48' W 062°13'0 0.0
2017-Dec-11 13:00N 16°48' W 062°13'1 2.6
2017-Dec-11 12:30N 16°47' W 062°13'1 0.2
2017-Dec-11 07:51N 16°46' W 062°14'0 0.0
2017-Dec-11 07:24N 16°46' W 062°14'  

Dump ship's entire track history